createdAt,value
2023-03-16T00:02:10.950Z,8.26
2023-03-16T00:04:40.387Z,8.32
2023-03-16T00:07:09.811Z,8.41
2023-03-16T00:09:41.234Z,8.55
2023-03-16T00:12:19.594Z,8.44
2023-03-16T00:14:48.374Z,8.35
2023-03-16T00:17:21.165Z,8.29
2023-03-16T00:19:51.697Z,8.37
2023-03-16T00:22:18.304Z,8.37
2023-03-16T00:24:45.023Z,8.34
2023-03-16T00:27:15.921Z,8.52
2023-03-16T00:29:47.079Z,8.62
2023-03-16T00:32:18.953Z,8.62
2023-03-16T00:34:46.843Z,8.41
2023-03-16T00:37:15.638Z,8.51
2023-03-16T00:39:43.718Z,8.67
2023-03-16T00:42:11.601Z,8.41
2023-03-16T00:44:39.066Z,8.56
2023-03-16T00:47:06.539Z,8.40
2023-03-16T00:49:34.982Z,8.43
2023-03-16T00:52:06.968Z,8.32
2023-03-16T00:54:33.750Z,8.35
2023-03-16T00:57:01.675Z,8.29
2023-03-16T00:59:29.381Z,8.30
2023-03-16T01:01:56.397Z,8.27
2023-03-16T01:04:23.260Z,8.28
2023-03-16T01:06:50.228Z,8.31
2023-03-16T01:09:16.877Z,8.41
2023-03-16T01:11:43.890Z,8.43
2023-03-16T01:14:11.515Z,8.50
2023-03-16T01:16:38.263Z,8.51
2023-03-16T01:19:05.051Z,8.45
2023-03-16T01:21:33.779Z,8.38
2023-03-16T01:24:00.472Z,8.48
2023-03-16T01:26:28.108Z,8.54
2023-03-16T01:28:55.040Z,8.52
2023-03-16T01:31:22.296Z,8.35
2023-03-16T01:33:49.334Z,8.46
2023-03-16T01:36:18.553Z,8.47
2023-03-16T01:38:45.812Z,8.28
2023-03-16T01:41:13.787Z,8.41
2023-03-16T01:43:41.404Z,8.30
2023-03-16T01:46:08.205Z,8.40
2023-03-16T01:49:05.732Z,8.49
2023-03-16T01:51:43.914Z,8.51
2023-03-16T01:54:38.640Z,8.51
2023-03-16T01:57:11.946Z,8.63
2023-03-16T01:59:40.335Z,8.66
2023-03-16T02:02:08.432Z,8.80
2023-03-16T02:05:10.687Z,8.79
2023-03-16T02:07:42.493Z,8.79
2023-03-16T02:10:10.806Z,8.90
2023-03-16T02:12:37.891Z,8.86
2023-03-16T02:15:05.262Z,8.91
2023-03-16T02:17:34.342Z,8.84
2023-03-16T02:20:26.672Z,8.91
2023-03-16T02:22:55.016Z,8.78
2023-03-16T02:25:33.286Z,8.87
2023-03-16T02:28:02.812Z,8.99
2023-03-16T02:30:30.899Z,8.85
2023-03-16T02:32:57.743Z,8.94
2023-03-16T02:35:24.478Z,8.77
2023-03-16T02:37:52.687Z,8.78
2023-03-16T02:40:29.483Z,8.78
2023-03-16T02:43:05.216Z,8.91
2023-03-16T02:45:39.643Z,8.82
2023-03-16T02:48:14.759Z,8.92
2023-03-16T02:50:47.493Z,8.96
2023-03-16T02:53:15.071Z,8.89
2023-03-16T02:55:41.788Z,8.94
2023-03-16T02:58:08.419Z,8.87
2023-03-16T03:00:35.065Z,8.89
2023-03-16T03:03:01.772Z,8.99
2023-03-16T03:05:28.494Z,9.05
2023-03-16T03:07:55.189Z,8.95
2023-03-16T03:10:22.099Z,8.98
2023-03-16T03:12:49.655Z,8.90
2023-03-16T03:15:18.222Z,8.88
2023-03-16T03:17:45.339Z,8.81
2023-03-16T03:20:22.047Z,8.77
2023-03-16T03:22:49.878Z,8.82
2023-03-16T03:25:18.650Z,8.78
2023-03-16T03:27:47.509Z,8.67
2023-03-16T03:30:18.401Z,8.75
2023-03-16T03:32:45.727Z,8.82
2023-03-16T03:35:14.083Z,8.94
2023-03-16T03:37:42.576Z,8.92
2023-03-16T03:40:12.020Z,8.92
2023-03-16T03:42:41.140Z,8.96
2023-03-16T03:45:09.105Z,9.00
2023-03-16T03:47:35.788Z,8.93
2023-03-16T03:50:02.475Z,8.96
2023-03-16T03:52:29.210Z,9.03
2023-03-16T03:54:55.814Z,9.11
2023-03-16T03:57:22.634Z,9.12
2023-03-16T03:59:49.348Z,9.00
2023-03-16T04:02:16.584Z,8.87
2023-03-16T04:04:43.878Z,8.86
2023-03-16T04:07:11.149Z,8.76
2023-03-16T04:09:37.905Z,8.95
2023-03-16T04:12:05.979Z,8.93
2023-03-16T04:14:33.209Z,8.82
2023-03-16T04:17:00.167Z,8.58
2023-03-16T04:19:26.946Z,8.65
2023-03-16T04:21:53.624Z,8.70
2023-03-16T04:24:22.403Z,8.72
2023-03-16T04:26:49.452Z,8.51
2023-03-16T04:29:20.175Z,8.78
2023-03-16T04:31:47.292Z,8.75
2023-03-16T04:34:14.357Z,8.71
2023-03-16T04:36:41.937Z,8.65
2023-03-16T04:39:10.470Z,8.71
2023-03-16T04:41:37.557Z,8.75
2023-03-16T04:44:04.859Z,8.85
2023-03-16T04:46:32.197Z,8.88
2023-03-16T04:48:59.005Z,8.97
2023-03-16T04:51:26.869Z,8.95
2023-03-16T04:53:54.277Z,8.88
2023-03-16T04:56:21.437Z,8.72
2023-03-16T04:58:49.859Z,8.75
2023-03-16T05:01:18.470Z,8.61
2023-03-16T05:06:39.723Z,8.99
2023-03-16T05:09:08.544Z,8.99
2023-03-16T05:11:36.426Z,9.10
2023-03-16T05:14:03.462Z,9.14
2023-03-16T05:16:31.272Z,9.21
2023-03-16T05:18:58.939Z,9.13
2023-03-16T05:21:25.616Z,8.90
2023-03-16T05:23:52.254Z,8.81
2023-03-16T05:26:19.339Z,8.96
2023-03-16T05:28:46.007Z,9.05
2023-03-16T05:31:12.837Z,8.89
2023-03-16T05:33:39.527Z,8.94
2023-03-16T05:36:06.528Z,8.94
2023-03-16T05:38:33.514Z,9.11
2023-03-16T05:41:04.616Z,8.87
2023-03-16T05:43:32.687Z,8.76
2023-03-16T05:45:59.387Z,8.99
2023-03-16T05:48:26.060Z,8.84
2023-03-16T05:50:53.391Z,8.73
2023-03-16T05:53:20.634Z,8.83
2023-03-16T05:55:54.925Z,8.82
2023-03-16T05:58:21.583Z,8.66
2023-03-16T06:00:48.288Z,8.55
2023-03-16T06:03:14.922Z,8.55
2023-03-16T06:05:41.844Z,8.33
2023-03-16T06:08:09.310Z,8.45
2023-03-16T06:10:36.488Z,8.31
2023-03-16T06:13:03.194Z,8.43
2023-03-16T06:15:30.702Z,8.47
2023-03-16T06:17:57.406Z,8.39
2023-03-16T06:20:24.181Z,8.42
2023-03-16T06:22:51.127Z,8.73
2023-03-16T06:25:17.944Z,8.65
2023-03-16T06:27:44.752Z,8.70
2023-03-16T06:30:13.612Z,8.62
2023-03-16T06:32:45.402Z,8.61
2023-03-16T06:35:13.128Z,8.45
2023-03-16T06:37:40.002Z,8.40
2023-03-16T06:40:07.773Z,8.70
2023-03-16T06:42:34.462Z,8.56
2023-03-16T06:45:01.142Z,8.40
2023-03-16T06:47:27.917Z,8.51
2023-03-16T06:49:55.455Z,8.47
2023-03-16T06:52:22.619Z,8.36
2023-03-16T06:54:49.450Z,8.41
2023-03-16T06:57:16.179Z,8.41
2023-03-16T06:59:42.797Z,8.39
2023-03-16T07:05:11.136Z,8.51
2023-03-16T07:07:37.866Z,8.56
2023-03-16T07:10:04.762Z,8.53
2023-03-16T07:12:31.604Z,8.50
2023-03-16T07:14:58.274Z,8.39
2023-03-16T07:17:25.011Z,8.41
2023-03-16T07:19:51.696Z,8.41
2023-03-16T07:22:18.315Z,8.37
2023-03-16T07:24:45.376Z,8.36
2023-03-16T07:27:12.702Z,8.24
2023-03-16T07:29:39.415Z,8.28
2023-03-16T07:32:06.407Z,8.28
2023-03-16T07:34:33.666Z,8.26
2023-03-16T07:37:00.747Z,8.26
2023-03-16T07:39:28.663Z,8.32
2023-03-16T07:41:55.312Z,8.38
2023-03-16T07:44:22.072Z,8.41
2023-03-16T07:46:48.761Z,8.47
2023-03-16T07:49:16.886Z,8.50
2023-03-16T07:51:43.588Z,8.55
2023-03-16T07:54:10.215Z,8.55
2023-03-16T07:56:48.439Z,8.59
2023-03-16T07:59:15.812Z,8.68
2023-03-16T08:01:42.496Z,8.77
2023-03-16T08:04:12.645Z,8.78
2023-03-16T08:06:39.332Z,8.94
2023-03-16T08:09:06.143Z,9.21
2023-03-16T08:11:32.760Z,9.17
2023-03-16T08:13:59.362Z,9.27
2023-03-16T08:16:27.070Z,9.31
2023-03-16T08:18:57.186Z,9.07
2023-03-16T08:21:24.258Z,9.21
2023-03-16T08:23:52.071Z,9.05
2023-03-16T08:26:20.869Z,9.18
2023-03-16T08:28:52.027Z,9.14
2023-03-16T08:31:21.094Z,9.20
2023-03-16T08:33:48.833Z,9.21
2023-03-16T08:36:17.385Z,9.26
2023-03-16T08:38:53.497Z,9.40
2023-03-16T08:41:30.774Z,9.43
2023-03-16T08:43:58.005Z,9.35
2023-03-16T08:46:24.863Z,9.32
2023-03-16T08:48:52.529Z,9.27
2023-03-16T08:51:19.589Z,9.01
2023-03-16T08:53:47.033Z,8.77
2023-03-16T08:56:14.787Z,8.65
2023-03-16T08:58:45.507Z,8.57
2023-03-16T09:01:15.329Z,8.31
2023-03-16T09:03:42.590Z,8.34
2023-03-16T09:06:11.168Z,8.37
2023-03-16T09:08:39.228Z,8.41
2023-03-16T09:11:09.247Z,8.49
2023-03-16T09:13:38.556Z,8.45
2023-03-16T09:16:06.480Z,8.32
2023-03-16T09:18:35.437Z,8.47
2023-03-16T09:21:04.733Z,8.47
2023-03-16T09:23:32.353Z,8.51
2023-03-16T09:26:01.735Z,8.69
2023-03-16T09:28:29.932Z,8.87
2023-03-16T09:30:57.627Z,8.75
2023-03-16T09:33:25.586Z,8.89
2023-03-16T09:35:53.007Z,9.07
2023-03-16T09:38:19.890Z,9.14
2023-03-16T09:40:50.403Z,9.00
2023-03-16T09:43:35.758Z,9.17
2023-03-16T09:46:19.093Z,8.98
2023-03-16T09:48:47.435Z,9.04
2023-03-16T09:51:23.008Z,9.29
2023-03-16T09:53:56.740Z,9.34
2023-03-16T09:56:32.101Z,9.29
2023-03-16T09:58:59.643Z,9.24
2023-03-16T10:01:48.391Z,9.23
2023-03-16T10:04:27.981Z,8.87
2023-03-16T10:07:23.467Z,8.70
2023-03-16T10:10:15.225Z,8.69
2023-03-16T10:12:46.152Z,8.80
2023-03-16T10:15:19.518Z,8.93
2023-03-16T10:18:07.257Z,8.69
2023-03-16T10:20:35.105Z,8.71
2023-03-16T10:23:24.277Z,8.66
2023-03-16T10:25:56.515Z,8.63
2023-03-16T10:28:26.333Z,8.60
2023-03-16T10:30:55.280Z,8.49
2023-03-16T10:33:27.775Z,8.42
2023-03-16T10:35:54.412Z,8.39
2023-03-16T10:38:39.672Z,8.46
2023-03-16T10:41:34.362Z,8.39
2023-03-16T10:44:12.146Z,8.02
2023-03-16T10:46:42.168Z,7.92
2023-03-16T10:49:29.807Z,7.93
2023-03-16T10:52:02.984Z,7.93
2023-03-16T10:54:40.844Z,8.14
2023-03-16T10:57:21.417Z,8.17
2023-03-16T10:59:50.536Z,7.91
2023-03-16T11:02:23.858Z,7.94
2023-03-16T11:04:51.265Z,7.95
2023-03-16T11:07:19.754Z,7.94
2023-03-16T11:09:47.862Z,7.98
2023-03-16T11:12:30.317Z,8.12
2023-03-16T11:15:25.143Z,7.98
2023-03-16T11:17:55.867Z,8.13
2023-03-16T11:20:27.629Z,8.10
2023-03-16T11:22:54.516Z,7.99
2023-03-16T11:25:29.840Z,7.86
2023-03-16T11:27:59.546Z,7.91
2023-03-16T11:30:35.360Z,7.83
2023-03-16T11:33:02.211Z,7.57
2023-03-16T11:35:29.415Z,7.45
2023-03-16T11:38:19.404Z,7.33
2023-03-16T11:40:45.999Z,7.39
2023-03-16T11:43:24.531Z,7.36
2023-03-16T11:46:09.188Z,7.28
2023-03-16T11:49:09.874Z,7.32
2023-03-16T11:51:52.250Z,7.30
2023-03-16T11:54:27.978Z,7.44
2023-03-16T11:57:03.069Z,7.24
2023-03-16T12:00:09.537Z,7.35
2023-03-16T12:02:39.044Z,7.36
2023-03-16T12:05:23.279Z,7.32
2023-03-16T12:08:21.736Z,7.33
2023-03-16T12:11:13.502Z,7.32
2023-03-16T12:13:58.144Z,7.48
2023-03-16T12:17:03.742Z,7.53
2023-03-16T12:19:42.681Z,7.61
2023-03-16T12:22:21.682Z,7.68
2023-03-16T12:24:49.065Z,7.73
2023-03-16T12:27:24.046Z,7.81
2023-03-16T12:30:03.795Z,8.00
2023-03-16T12:32:36.709Z,8.21
2023-03-16T12:35:24.283Z,8.04
2023-03-16T12:38:02.339Z,7.98
2023-03-16T12:40:40.663Z,7.65
2023-03-16T12:43:23.942Z,7.69
2023-03-16T12:46:14.357Z,7.75
2023-03-16T12:48:47.626Z,7.71
2023-03-16T12:51:14.497Z,7.62
2023-03-16T12:53:51.940Z,7.79
2023-03-16T12:56:32.459Z,7.68
2023-03-16T12:59:02.193Z,7.87
2023-03-16T13:01:41.525Z,7.87
2023-03-16T13:04:16.534Z,7.57
2023-03-16T13:06:50.636Z,7.29
2023-03-16T13:09:25.715Z,7.29
2023-03-16T13:11:53.390Z,7.33
2023-03-16T13:14:42.790Z,7.30
2023-03-16T13:17:18.579Z,7.38
2023-03-16T13:19:57.840Z,7.26
2023-03-16T13:22:53.273Z,7.14
2023-03-16T13:25:29.248Z,7.02
2023-03-16T13:27:59.161Z,6.93
2023-03-16T13:30:33.185Z,6.98
2023-03-16T13:33:37.062Z,6.90
2023-03-16T13:36:06.552Z,6.76
2023-03-16T13:38:33.377Z,6.75
2023-03-16T13:41:14.180Z,6.74
2023-03-16T13:43:44.267Z,6.64
2023-03-16T13:46:19.526Z,6.65
2023-03-16T13:48:49.621Z,6.66
2023-03-16T13:51:22.871Z,6.76
2023-03-16T13:53:50.946Z,6.84
2023-03-16T13:56:22.686Z,6.87
2023-03-16T13:58:52.511Z,6.81
2023-03-16T14:01:26.177Z,6.78
2023-03-16T14:03:56.358Z,6.84
2023-03-16T14:06:29.061Z,6.62
2023-03-16T14:09:02.920Z,6.56
2023-03-16T14:11:36.276Z,6.53
2023-03-16T14:14:14.798Z,6.37
2023-03-16T14:16:42.596Z,6.29
2023-03-16T14:19:22.844Z,6.31
2023-03-16T14:21:50.169Z,6.29
2023-03-16T14:24:33.964Z,6.31
2023-03-16T14:27:43.113Z,6.43
2023-03-16T14:30:24.385Z,6.46
2023-03-16T14:32:58.977Z,6.52
2023-03-16T14:35:46.124Z,6.54
2023-03-16T14:38:28.674Z,6.52
2023-03-16T14:40:58.545Z,6.56
2023-03-16T14:43:30.918Z,6.53
2023-03-16T14:45:57.889Z,6.33
2023-03-16T14:48:25.439Z,6.12
2023-03-16T14:50:58.520Z,6.27
2023-03-16T14:53:28.463Z,6.42
2023-03-16T14:55:56.778Z,6.43
2023-03-16T14:58:23.971Z,6.24
2023-03-16T15:00:53.759Z,6.12
2023-03-16T15:03:23.834Z,6.12
2023-03-16T15:05:52.112Z,5.98
2023-03-16T15:08:32.231Z,5.96
2023-03-16T15:11:02.568Z,5.85
2023-03-16T15:13:42.558Z,5.72
2023-03-16T15:16:14.186Z,5.81
2023-03-16T15:18:41.959Z,5.82
2023-03-16T15:21:14.805Z,5.90
2023-03-16T15:23:43.010Z,5.82
2023-03-16T15:26:16.674Z,5.72
2023-03-16T15:28:43.386Z,5.71
2023-03-16T15:31:17.324Z,5.70
2023-03-16T15:33:45.422Z,5.63
2023-03-16T15:36:15.919Z,5.69
2023-03-16T15:38:46.755Z,5.73
2023-03-16T15:41:14.313Z,5.57
2023-03-16T15:43:40.982Z,5.60
2023-03-16T15:46:07.706Z,5.58
2023-03-16T15:48:34.417Z,5.61
2023-03-16T15:51:07.687Z,5.57
2023-03-16T15:53:46.056Z,5.67
2023-03-16T15:56:17.513Z,5.70
2023-03-16T15:58:46.746Z,5.69
2023-03-16T16:01:25.481Z,5.68
2023-03-16T16:03:54.129Z,5.73
2023-03-16T16:06:22.269Z,5.80
2023-03-16T16:08:48.980Z,5.92
2023-03-16T16:11:26.465Z,5.98
2023-03-16T16:13:56.688Z,6.18
2023-03-16T16:16:23.757Z,6.15
2023-03-16T16:18:50.971Z,6.01
2023-03-16T16:21:22.884Z,6.17
2023-03-16T16:23:51.542Z,5.99
2023-03-16T16:26:49.910Z,6.05
2023-03-16T16:29:24.236Z,6.01
2023-03-16T16:31:54.181Z,5.96
2023-03-16T16:34:24.897Z,6.07
2023-03-16T16:36:52.466Z,6.09
2023-03-16T16:39:19.187Z,6.02
2023-03-16T16:41:46.341Z,6.11
2023-03-16T16:44:23.627Z,6.20
2023-03-16T16:46:52.035Z,6.21
2023-03-16T16:49:28.382Z,6.14
2023-03-16T16:51:55.555Z,6.18
2023-03-16T16:54:24.837Z,6.18
2023-03-16T16:56:54.349Z,6.11
2023-03-16T16:59:32.464Z,6.02
2023-03-16T17:02:01.868Z,5.99
2023-03-16T17:04:29.711Z,5.91
2023-03-16T17:06:59.789Z,6.06
2023-03-16T17:09:28.300Z,5.96
2023-03-16T17:11:58.869Z,5.90
2023-03-16T17:14:27.758Z,5.86
2023-03-16T17:16:55.285Z,5.91
2023-03-16T17:19:27.842Z,5.81
2023-03-16T17:21:57.609Z,5.93
2023-03-16T17:24:25.019Z,5.81
2023-03-16T17:26:58.842Z,5.82
2023-03-16T17:29:32.121Z,5.74
2023-03-16T17:32:01.341Z,5.71
2023-03-16T17:34:32.256Z,5.61
2023-03-16T17:36:58.964Z,5.65
2023-03-16T17:39:32.182Z,5.61
2023-03-16T17:42:01.974Z,5.55
2023-03-16T17:44:35.371Z,5.56
2023-03-16T17:47:02.305Z,5.53
2023-03-16T17:49:30.786Z,5.46
2023-03-16T17:51:57.810Z,5.43
2023-03-16T17:54:24.523Z,5.41
2023-03-16T17:56:53.005Z,5.37
2023-03-16T17:59:21.998Z,5.29
2023-03-16T18:01:49.135Z,5.27
2023-03-16T18:04:22.188Z,5.26
2023-03-16T18:06:49.542Z,5.26
2023-03-16T18:09:17.890Z,5.24
2023-03-16T18:11:47.772Z,5.23
2023-03-16T18:14:37.544Z,5.28
2023-03-16T18:17:24.076Z,5.27
2023-03-16T18:19:50.996Z,5.30
2023-03-16T18:22:24.398Z,5.28
2023-03-16T18:24:53.240Z,5.21
2023-03-16T18:27:20.076Z,5.21
2023-03-16T18:29:47.209Z,5.19
2023-03-16T18:32:30.017Z,5.24
2023-03-16T18:34:58.012Z,5.29
2023-03-16T18:37:30.334Z,5.24
2023-03-16T18:39:57.051Z,5.26
2023-03-16T18:42:28.460Z,5.24
2023-03-16T18:44:55.653Z,5.23
2023-03-16T18:47:24.141Z,5.11
2023-03-16T18:49:54.071Z,5.19
2023-03-16T18:52:30.985Z,5.26
2023-03-16T18:54:58.455Z,5.29
2023-03-16T18:57:28.120Z,5.26
2023-03-16T18:59:55.460Z,5.21
2023-03-16T19:02:35.250Z,5.22
2023-03-16T19:05:05.028Z,5.22
2023-03-16T19:07:38.115Z,5.13
2023-03-16T19:10:28.427Z,5.16
2023-03-16T19:12:55.592Z,5.18
2023-03-16T19:15:25.144Z,5.17
2023-03-16T19:17:53.812Z,5.18
2023-03-16T19:20:41.754Z,5.17
2023-03-16T19:23:25.818Z,5.21
2023-03-16T19:25:54.377Z,5.23
2023-03-16T19:28:28.263Z,5.27
2023-03-16T19:30:57.086Z,5.30
2023-03-16T19:33:26.129Z,5.29
2023-03-16T19:35:54.725Z,5.28
2023-03-16T19:38:23.247Z,5.28
2023-03-16T19:40:56.399Z,5.33
2023-03-16T19:43:24.261Z,5.33
2023-03-16T19:45:51.690Z,5.28
2023-03-16T19:48:35.437Z,5.31
2023-03-16T19:51:02.313Z,5.26
2023-03-16T19:53:29.065Z,5.25
2023-03-16T19:55:55.779Z,5.30
2023-03-16T19:58:33.997Z,5.27
2023-03-16T20:01:01.291Z,5.27
2023-03-16T20:03:29.410Z,5.20
2023-03-16T20:05:56.113Z,5.28
2023-03-16T20:08:28.739Z,5.22
2023-03-16T20:11:07.455Z,5.18
2023-03-16T20:13:35.521Z,5.11
2023-03-16T20:16:03.454Z,5.12
2023-03-16T20:18:30.216Z,5.01
2023-03-16T20:20:57.843Z,5.19
2023-03-16T20:23:29.412Z,5.21
2023-03-16T20:26:01.949Z,5.22
2023-03-16T20:28:36.247Z,5.22
2023-03-16T20:31:06.714Z,5.32
2023-03-16T20:33:33.571Z,5.24
2023-03-16T20:36:00.456Z,5.24
2023-03-16T20:38:27.236Z,5.33
2023-03-16T20:40:54.812Z,5.25
2023-03-16T20:43:26.461Z,5.25
2023-03-16T20:45:56.105Z,5.28
2023-03-16T20:48:25.513Z,5.28
2023-03-16T20:50:56.290Z,5.24
2023-03-16T20:53:23.560Z,5.24
2023-03-16T20:55:51.712Z,5.24
2023-03-16T20:58:24.545Z,5.26
2023-03-16T21:00:57.656Z,5.20
2023-03-16T21:03:27.669Z,5.31
2023-03-16T21:05:58.429Z,5.20
2023-03-16T21:08:26.461Z,5.25
2023-03-16T21:10:53.889Z,5.33
2023-03-16T21:13:39.893Z,5.30
2023-03-16T21:16:06.651Z,5.41
2023-03-16T21:18:33.390Z,5.33
2023-03-16T21:21:00.157Z,5.38
2023-03-16T21:23:26.808Z,5.36
2023-03-16T21:25:55.894Z,5.34
2023-03-16T21:28:25.497Z,5.25
2023-03-16T21:30:55.039Z,5.23
2023-03-16T21:33:30.095Z,5.12
2023-03-16T21:35:57.593Z,5.11
2023-03-16T21:38:26.094Z,5.11
2023-03-16T21:40:52.851Z,4.96
2023-03-16T21:43:19.507Z,5.09
2023-03-16T21:45:46.882Z,5.12
2023-03-16T21:48:20.491Z,5.02
2023-03-16T21:50:48.492Z,4.98
2023-03-16T21:53:25.815Z,4.96
2023-03-16T21:55:54.629Z,4.72
2023-03-16T21:58:22.292Z,5.02
2023-03-16T22:00:51.045Z,4.96
2023-03-16T22:03:23.766Z,5.08
2023-03-16T22:05:51.275Z,5.03
2023-03-16T22:08:27.209Z,5.05
2023-03-16T22:10:55.316Z,5.02
2023-03-16T22:13:22.231Z,5.01
2023-03-16T22:15:51.928Z,5.03
2023-03-16T22:18:38.115Z,5.08
2023-03-16T22:21:17.497Z,4.95
2023-03-16T22:23:45.028Z,5.01
2023-03-16T22:26:16.824Z,5.07
2023-03-16T22:28:44.305Z,5.00
2023-03-16T22:31:16.556Z,4.98
2023-03-16T22:33:46.622Z,4.94
2023-03-16T22:36:16.846Z,5.10
2023-03-16T22:38:44.425Z,5.13
2023-03-16T22:41:15.918Z,5.05
2023-03-16T22:43:44.666Z,5.04
2023-03-16T22:46:23.561Z,5.01
2023-03-16T22:48:52.232Z,5.05
2023-03-16T22:51:31.574Z,5.06
2023-03-16T22:54:02.737Z,5.05
2023-03-16T22:56:31.449Z,5.02
2023-03-16T22:59:02.379Z,4.99
2023-03-16T23:01:39.464Z,5.09
2023-03-16T23:04:24.618Z,5.10
2023-03-16T23:06:54.732Z,4.94
2023-03-16T23:09:22.283Z,4.93
2023-03-16T23:11:54.412Z,4.97
2023-03-16T23:14:24.454Z,5.03
2023-03-16T23:16:54.690Z,5.00
2023-03-16T23:19:34.157Z,4.98
2023-03-16T23:22:04.929Z,4.98
2023-03-16T23:24:35.195Z,4.93
2023-03-16T23:27:02.209Z,5.00
2023-03-16T23:29:29.283Z,4.93
2023-03-16T23:31:56.695Z,4.87
2023-03-16T23:34:25.089Z,4.97
2023-03-16T23:36:52.766Z,4.95
2023-03-16T23:39:19.616Z,4.96
2023-03-16T23:41:49.698Z,4.83
2023-03-16T23:44:26.398Z,5.12
2023-03-16T23:46:53.684Z,5.07
2023-03-16T23:49:32.975Z,4.98
2023-03-16T23:52:01.771Z,5.02
2023-03-16T23:54:30.995Z,5.02
2023-03-16T23:56:57.699Z,5.01
2023-03-16T23:59:24.944Z,5.04
